Time;durP1;ratioP1;P1;durP2;ratioP2;P2;SDS_P1;SDS_P2;PMS_P1;PMS_P2;Temp;Humidity;BMP_temperature;BMP_pressure;BME280_temperature;BME280_humidity;BME280_pressure;Samples;Min_cycle;Max_cycle;Signal;HPM_P1;HPM_P2
2022/03/19 00:00:27;;;;;;;67.80;38.17;;;6.40;99.90;;;;;;5008448;28;20381;-51
2022/03/19 00:02:53;;;;;;;73.40;38.10;;;6.40;99.90;;;;;;5009627;28;20380;-51
2022/03/19 00:05:19;;;;;;;76.20;39.63;;;6.30;99.90;;;;;;5008795;28;20380;-51
2022/03/19 00:07:45;;;;;;;71.15;36.83;;;6.40;99.90;;;;;;5009399;28;20408;-51
2022/03/19 00:10:11;;;;;;;71.00;37.10;;;6.80;99.90;;;;;;5011263;28;20389;-51
2022/03/19 00:12:39;;;;;;;72.70;37.78;;;6.50;99.90;;;;;;5013107;28;20450;-51
2022/03/19 00:15:06;;;;;;;72.93;37.10;;;6.40;99.90;;;;;;5013214;28;20377;-51
2022/03/19 00:17:32;;;;;;;78.53;39.33;;;6.50;99.90;;;;;;5012441;28;20517;-51
2022/03/19 00:19:57;;;;;;;75.38;36.35;;;6.40;99.90;;;;;;5012843;28;20893;-50
2022/03/19 00:22:23;;;;;;;73.93;37.03;;;7.70;99.90;;;;;;5012407;28;20392;-51
2022/03/19 00:24:48;;;;;;;72.32;37.53;;;6.60;99.90;;;;;;5013237;28;20395;-51
2022/03/19 00:27:14;;;;;;;70.20;37.67;;;6.40;99.90;;;;;;5009757;28;20874;-51
2022/03/19 00:29:40;;;;;;;72.88;37.72;;;6.40;99.90;;;;;;5012431;28;20495;-51
2022/03/19 00:32:06;;;;;;;69.18;36.80;;;8.20;99.90;;;;;;5012659;28;20846;-51
2022/03/19 00:34:32;;;;;;;66.63;36.13;;;6.40;99.90;;;;;;5012311;28;20388;-51
2022/03/19 00:36:58;;;;;;;71.03;36.90;;;6.40;99.90;;;;;;5013113;28;20426;-51
2022/03/19 00:39:25;;;;;;;69.88;37.03;;;6.40;99.90;;;;;;5012503;28;20404;-51
2022/03/19 00:41:52;;;;;;;73.78;38.25;;;6.30;99.90;;;;;;5013042;28;20381;-51
2022/03/19 00:44:21;;;;;;;71.78;37.58;;;6.40;99.90;;;;;;5012148;28;20393;-51
2022/03/19 00:46:47;;;;;;;70.97;37.50;;;6.30;99.90;;;;;;5011855;28;20443;-51
2022/03/19 00:49:13;;;;;;;72.88;37.70;;;6.30;99.90;;;;;;5009164;28;20459;-51
2022/03/19 00:51:39;;;;;;;68.70;36.70;;;6.30;99.90;;;;;;5012680;28;20397;-51
2022/03/19 00:54:05;;;;;;;68.77;36.40;;;6.30;99.90;;;;;;5012745;28;20460;-51
2022/03/19 00:56:31;;;;;;;70.90;37.40;;;6.20;99.90;;;;;;5011919;28;20388;-51
2022/03/19 00:58:57;;;;;;;71.63;37.47;;;6.20;99.90;;;;;;5012531;28;20381;-51
2022/03/19 01:01:23;;;;;;;66.45;38.30;;;6.30;99.90;;;;;;5011908;28;20920;-51
2022/03/19 01:03:49;;;;;;;67.50;36.40;;;6.30;99.90;;;;;;5012217;28;20389;-51
2022/03/19 01:06:14;;;;;;;72.25;37.45;;;6.30;99.90;;;;;;5011410;28;20420;-51
2022/03/19 01:08:40;;;;;;;70.23;37.03;;;6.40;99.90;;;;;;5012330;28;20412;-51
2022/03/19 01:11:07;;;;;;;68.88;37.38;;;6.70;99.90;;;;;;5012422;28;20381;-51
2022/03/19 01:13:32;;;;;;;70.93;38.45;;;6.30;99.90;;;;;;5011736;28;20388;-51
2022/03/19 01:15:58;;;;;;;68.70;37.70;;;6.40;99.90;;;;;;5012351;28;20383;-51
2022/03/19 01:18:25;;;;;;;63.80;35.33;;;8.00;99.90;;;;;;5011758;28;20885;-51
2022/03/19 01:20:50;;;;;;;64.10;35.33;;;6.90;99.90;;;;;;5011580;28;20882;-51
2022/03/19 01:23:16;;;;;;;65.17;35.47;;;6.30;99.90;;;;;;5010401;28;20483;-51
2022/03/19 01:25:42;;;;;;;68.20;36.65;;;6.40;99.90;;;;;;5012225;28;20835;-51
2022/03/19 01:28:07;;;;;;;70.90;37.47;;;6.30;99.90;;;;;;5008777;28;20421;-51
2022/03/19 01:30:33;;;;;;;68.65;36.97;;;6.30;99.90;;;;;;4993563;28;20436;-51
2022/03/19 01:32:59;;;;;;;67.30;37.07;;;6.30;99.90;;;;;;5012026;28;20381;-51
2022/03/19 01:35:24;;;;;;;64.50;34.93;;;6.30;99.90;;;;;;5009542;28;20419;-51
2022/03/19 01:37:50;;;;;;;72.93;36.90;;;6.30;99.90;;;;;;5011956;28;20395;-51
2022/03/19 01:40:18;;;;;;;70.40;35.63;;;6.20;99.90;;;;;;5011318;28;20368;-51
2022/03/19 01:42:46;;;;;;;64.95;34.85;;;6.20;99.90;;;;;;5011411;28;20447;-52
2022/03/19 01:45:18;;;;;;;67.18;35.85;;;6.20;99.90;;;;;;5011397;28;20388;-51
2022/03/19 01:47:44;;;;;;;67.63;34.92;;;6.10;99.90;;;;;;5011367;28;20457;-52
2022/03/19 01:50:11;;;;;;;63.05;34.50;;;6.10;99.90;;;;;;5011751;28;20759;-52
2022/03/19 01:52:37;;;;;;;69.60;36.88;;;6.60;99.90;;;;;;5011205;28;20385;-52
2022/03/19 01:55:04;;;;;;;67.27;36.10;;;6.10;99.90;;;;;;5011899;28;20389;-52
2022/03/19 01:57:34;;;;;;;63.15;34.00;;;6.10;99.90;;;;;;5010957;28;20389;-52
2022/03/19 02:00:00;;;;;;;64.13;35.78;;;7.00;99.90;;;;;;5011225;28;20479;-52
2022/03/19 02:02:27;;;;;;;69.93;35.77;;;6.10;99.90;;;;;;5010844;28;20484;-52
2022/03/19 02:04:54;;;;;;;62.65;33.30;;;6.10;99.90;;;;;;5011068;28;20397;-52
2022/03/19 02:07:20;;;;;;;64.90;35.27;;;6.10;99.90;;;;;;5010045;28;20401;-52
2022/03/19 02:09:48;;;;;;;62.27;34.40;;;6.10;99.90;;;;;;5011310;28;20427;-52
2022/03/19 02:12:13;;;;;;;68.20;35.80;;;6.10;99.90;;;;;;5010905;28;20403;-52
2022/03/19 02:14:40;;;;;;;63.87;33.33;;;6.10;99.90;;;;;;5010452;28;20385;-52
2022/03/19 02:17:09;;;;;;;62.72;33.83;;;6.10;99.90;;;;;;5011360;28;20422;-52
2022/03/19 02:19:49;;;;;;;63.85;33.78;;;6.10;99.90;;;;;;5010252;28;20450;-52
2022/03/19 02:22:17;;;;;;;72.28;35.38;;;6.20;99.90;;;;;;5009942;28;20414;-52
2022/03/19 02:27:27;;;;;;;61.20;33.85;;;6.20;99.90;;;;;;5008409;28;20420;-52
2022/03/19 02:29:52;;;;;;;60.08;34.15;;;6.10;99.90;;;;;;4988280;28;20407;-52
2022/03/19 02:32:18;;;;;;;70.20;39.45;;;6.20;99.90;;;;;;5002530;28;20452;-51
2022/03/19 02:34:44;;;;;;;63.20;34.40;;;6.20;99.90;;;;;;5010785;28;20377;-51
2022/03/19 02:37:10;;;;;;;63.17;35.47;;;6.10;99.90;;;;;;5008682;28;20426;-51
2022/03/19 02:39:36;;;;;;;67.67;36.20;;;6.20;99.90;;;;;;5001828;28;20424;-51
2022/03/19 02:42:04;;;;;;;61.83;34.00;;;6.20;99.90;;;;;;5010907;28;20778;-51
2022/03/19 02:44:30;;;;;;;64.28;36.38;;;6.20;99.90;;;;;;5009771;28;20373;-51
2022/03/19 02:46:58;;;;;;;67.10;35.67;;;6.60;99.90;;;;;;5010289;28;20724;-51
2022/03/19 02:49:25;;;;;;;61.73;33.97;;;6.20;99.90;;;;;;5009766;28;20992;-51
2022/03/19 02:51:53;;;;;;;60.42;34.28;;;6.50;99.90;;;;;;5011057;28;20727;-52
2022/03/19 02:54:22;;;;;;;64.10;34.97;;;6.10;99.90;;;;;;5009900;28;20484;-53
2022/03/19 02:56:48;;;;;;;64.43;34.50;;;6.10;99.90;;;;;;5010128;28;20424;-52
2022/03/19 02:59:29;;;;;;;61.70;33.38;;;6.10;99.90;;;;;;5009967;28;20883;-52
2022/03/19 03:02:03;;;;;;;62.05;34.17;;;6.00;99.90;;;;;;5004713;28;20504;-51
2022/03/19 03:04:29;;;;;;;62.05;34.10;;;6.00;99.90;;;;;;5009039;28;20817;-50
2022/03/19 03:06:58;;;;;;;61.95;34.20;;;6.00;99.90;;;;;;5010365;28;20458;-51
2022/03/19 03:09:25;;;;;;;62.20;32.45;;;6.10;99.90;;;;;;5009237;28;20884;-51
2022/03/19 03:11:51;;;;;;;62.13;33.17;;;6.00;99.90;;;;;;5010335;28;20389;-51
2022/03/19 03:14:20;;;;;;;62.30;33.65;;;6.00;99.90;;;;;;5009395;28;20889;-51
2022/03/19 03:16:51;;;;;;;63.35;34.65;;;6.00;99.90;;;;;;5010264;28;20388;-51
2022/03/19 03:19:17;;;;;;;62.67;32.93;;;6.00;99.90;;;;;;4991851;28;20405;-51
2022/03/19 03:21:44;;;;;;;62.47;32.90;;;6.00;99.90;;;;;;5009590;28;20417;-51
2022/03/19 03:24:11;;;;;;;63.22;33.80;;;6.00;99.90;;;;;;5008508;28;20399;-51
2022/03/19 03:26:38;;;;;;;64.30;33.53;;;6.00;99.90;;;;;;5009229;28;20659;-51
2022/03/19 03:29:05;;;;;;;59.22;33.10;;;6.00;99.90;;;;;;5009825;28;20414;-51
2022/03/19 03:31:31;;;;;;;65.07;33.70;;;6.00;99.90;;;;;;5009052;28;20396;-51
2022/03/19 03:33:57;;;;;;;56.45;32.35;;;7.70;99.90;;;;;;5009930;28;20502;-51
2022/03/19 03:36:22;;;;;;;61.40;34.00;;;7.70;99.90;;;;;;5009030;28;20546;-51
2022/03/19 03:38:49;;;;;;;61.78;32.65;;;6.00;99.90;;;;;;5009779;28;20468;-51
2022/03/19 03:41:14;;;;;;;63.78;33.35;;;6.10;99.90;;;;;;4991898;28;20433;-51
2022/03/19 03:43:40;;;;;;;65.45;32.92;;;6.00;99.90;;;;;;5009214;28;20400;-51
2022/03/19 03:46:06;;;;;;;59.53;33.07;;;6.00;99.90;;;;;;5009508;28;20385;-51
2022/03/19 03:48:35;;;;;;;64.00;33.67;;;6.00;99.90;;;;;;5008935;28;20818;-51
2022/03/19 03:51:01;;;;;;;58.47;32.03;;;6.10;99.90;;;;;;5009769;28;20401;-51
2022/03/19 03:53:28;;;;;;;58.38;32.35;;;5.90;99.90;;;;;;5008752;28;20451;-51
2022/03/19 03:55:54;;;;;;;59.75;32.90;;;6.00;99.90;;;;;;5009513;28;20385;-51
2022/03/19 03:58:20;;;;;;;59.08;32.75;;;8.30;99.90;;;;;;5008382;28;20793;-51
2022/03/19 04:00:46;;;;;;;60.50;33.75;;;6.00;99.90;;;;;;5009331;28;20464;-51
2022/03/19 04:03:12;;;;;;;64.30;34.28;;;6.10;99.90;;;;;;5009451;28;20499;-51
2022/03/19 04:05:38;;;;;;;57.83;32.28;;;6.00;99.90;;;;;;5007339;28;20503;-51
2022/03/19 04:08:05;;;;;;;64.43;32.80;;;5.90;99.90;;;;;;5009125;28;20417;-51
2022/03/19 04:10:31;;;;;;;61.78;33.72;;;6.00;99.90;;;;;;5008764;28;20377;-51
2022/03/19 04:13:00;;;;;;;64.43;34.20;;;5.90;99.90;;;;;;5009248;28;20473;-52
2022/03/19 04:15:26;;;;;;;63.38;34.70;;;5.80;99.90;;;;;;5008225;28;20882;-51
2022/03/19 04:17:52;;;;;;;65.90;33.10;;;5.80;99.90;;;;;;5009493;28;20381;-51
2022/03/19 04:20:18;;;;;;;59.30;32.55;;;7.00;99.90;;;;;;5008412;28;20434;-51
2022/03/19 04:22:45;;;;;;;60.53;32.03;;;5.60;99.90;;;;;;5009138;28;20388;-51
2022/03/19 04:25:15;;;;;;;68.07;35.30;;;5.60;99.90;;;;;;5009437;28;20385;-51
2022/03/19 04:27:42;;;;;;;63.15;33.45;;;5.40;99.90;;;;;;5004519;28;20408;-52
2022/03/19 04:30:11;;;;;;;62.22;33.30;;;6.20;99.90;;;;;;5008736;28;20385;-51
2022/03/19 04:32:54;;;;;;;67.75;34.38;;;5.30;99.90;;;;;;5008457;28;20381;-51
2022/03/19 04:38:07;;;;;;;63.58;34.38;;;5.20;99.90;;;;;;5009360;28;21000;-52
2022/03/19 04:40:34;;;;;;;60.33;33.40;;;5.30;99.90;;;;;;5008292;28;20471;-51
2022/03/19 04:43:00;;;;;;;62.83;34.05;;;5.40;99.90;;;;;;5008663;28;20466;-51
2022/03/19 04:45:26;;;;;;;64.07;34.30;;;5.40;99.90;;;;;;5008349;28;20462;-52
2022/03/19 04:47:52;;;;;;;57.43;32.17;;;5.50;99.90;;;;;;5007270;28;20444;-52
2022/03/19 04:50:18;;;;;;;61.13;34.43;;;5.60;99.90;;;;;;5008233;28;20388;-51
2022/03/19 04:52:44;;;;;;;59.10;32.07;;;5.60;99.90;;;;;;5008993;28;20396;-52
2022/03/19 04:55:11;;;;;;;64.57;34.13;;;5.60;99.90;;;;;;5009432;28;20872;-51
2022/03/19 04:57:37;;;;;;;63.53;33.70;;;5.60;99.90;;;;;;5011629;28;20393;-52
2022/03/19 05:00:05;;;;;;;62.97;33.15;;;5.70;99.90;;;;;;5012520;28;20389;-51
2022/03/19 05:02:31;;;;;;;65.57;34.33;;;5.70;99.90;;;;;;5011354;28;20388;-51
2022/03/19 05:04:56;;;;;;;61.92;33.58;;;6.00;99.90;;;;;;5012847;28;20389;-52
2022/03/19 05:07:23;;;;;;;61.03;32.60;;;5.50;99.90;;;;;;5011783;28;20387;-52
2022/03/19 05:12:42;;;;;;;60.83;32.95;;;5.40;99.90;;;;;;5011437;28;20773;-52
2022/03/19 05:15:12;;;;;;;57.70;31.20;;;6.90;99.90;;;;;;5012223;28;20881;-51
2022/03/19 05:17:38;;;;;;;62.90;33.07;;;5.70;99.90;;;;;;5011361;28;21025;-52
2022/03/19 05:20:05;;;;;;;60.58;32.13;;;5.50;99.90;;;;;;5011933;28;20393;-52
2022/03/19 05:22:31;;;;;;;57.10;31.10;;;5.50;99.90;;;;;;5011445;28;20400;-51
2022/03/19 05:24:57;;;;;;;64.68;32.88;;;5.50;99.90;;;;;;5012125;28;20389;-51
2022/03/19 05:27:23;;;;;;;63.40;32.72;;;5.50;99.90;;;;;;5011510;28;20385;-52
2022/03/19 05:29:49;;;;;;;60.33;32.40;;;5.50;99.90;;;;;;4994274;28;20440;-52
2022/03/19 05:32:15;;;;;;;60.63;32.63;;;5.50;99.90;;;;;;5011918;28;20385;-52
2022/03/19 05:34:41;;;;;;;68.30;33.60;;;5.50;99.90;;;;;;5008498;28;20463;-51
2022/03/19 05:37:07;;;;;;;62.53;33.22;;;5.50;99.90;;;;;;5011831;28;20385;-51
2022/03/19 05:39:34;;;;;;;63.40;33.63;;;5.50;99.90;;;;;;5011189;28;20732;-52
2022/03/19 05:41:59;;;;;;;59.85;33.65;;;5.50;99.90;;;;;;5011385;28;20416;-52
2022/03/19 05:44:25;;;;;;;64.35;33.13;;;5.50;99.90;;;;;;5011126;28;20416;-52
2022/03/19 05:46:51;;;;;;;63.50;34.80;;;5.40;99.90;;;;;;5011300;28;20472;-51
2022/03/19 05:49:17;;;;;;;64.55;34.30;;;5.50;99.90;;;;;;5011480;28;20980;-51
2022/03/19 05:51:43;;;;;;;65.43;34.65;;;5.50;99.90;;;;;;4993655;28;21233;-51
2022/03/19 05:54:10;;;;;;;60.58;32.17;;;5.70;99.90;;;;;;5011782;28;20438;-52
2022/03/19 05:56:36;;;;;;;63.50;34.10;;;5.90;99.90;;;;;;5010810;28;20889;-51
2022/03/19 05:59:03;;;;;;;61.60;32.05;;;6.10;99.90;;;;;;5011125;28;20399;-49
2022/03/19 06:01:29;;;;;;;61.50;33.15;;;6.30;99.90;;;;;;5010614;28;20472;-50
2022/03/19 06:03:56;;;;;;;62.28;33.08;;;6.60;99.90;;;;;;4993894;28;20546;-50
2022/03/19 06:06:26;;;;;;;56.35;30.35;;;6.90;99.90;;;;;;5010194;28;20839;-50
2022/03/19 06:08:52;;;;;;;60.88;32.63;;;7.10;99.90;;;;;;5010564;28;20445;-52
2022/03/19 06:11:18;;;;;;;56.85;32.60;;;7.40;99.90;;;;;;5011091;28;20892;-52
2022/03/19 06:13:44;;;;;;;59.80;30.97;;;7.60;99.90;;;;;;5010766;28;20381;-52
2022/03/19 06:16:09;;;;;;;55.13;30.60;;;7.60;99.90;;;;;;5010956;28;20389;-52
2022/03/19 06:18:35;;;;;;;55.90;31.40;;;7.80;99.90;;;;;;5005376;28;20524;-52
2022/03/19 06:21:01;;;;;;;55.33;30.55;;;8.10;99.90;;;;;;5000436;28;20508;-52
2022/03/19 06:23:27;;;;;;;59.17;30.53;;;8.50;99.90;;;;;;5010605;28;20389;-52
2022/03/19 06:25:53;;;;;;;56.72;30.85;;;8.50;99.90;;;;;;5011264;28;20424;-52
2022/03/19 06:28:19;;;;;;;55.25;30.75;;;8.90;99.90;;;;;;5007021;28;20532;-52
2022/03/19 06:30:45;;;;;;;52.35;30.88;;;9.20;99.90;;;;;;5009380;28;20401;-53
2022/03/19 06:33:13;;;;;;;54.40;31.90;;;9.60;99.90;;;;;;5010324;28;22600;-52
2022/03/19 06:38:26;;;;;;;53.85;31.08;;;10.10;99.90;;;;;;5010117;28;20381;-52
2022/03/19 06:40:52;;;;;;;55.72;31.90;;;10.60;99.90;;;;;;5010653;28;20391;-52
2022/03/19 06:43:18;;;;;;;51.88;31.35;;;10.70;99.90;;;;;;5010412;28;20463;-52
2022/03/19 06:45:43;;;;;;;55.03;31.70;;;10.30;99.90;;;;;;5009319;28;20440;-52
2022/03/19 06:48:09;;;;;;;54.22;32.15;;;10.30;99.90;;;;;;5010632;28;20419;-52
2022/03/19 06:50:35;;;;;;;52.78;32.20;;;10.40;99.90;;;;;;5010195;28;20381;-53
2022/03/19 06:53:04;;;;;;;52.22;30.83;;;10.90;99.90;;;;;;5010697;28;20843;-52
2022/03/19 06:55:31;;;;;;;52.50;31.40;;;11.30;99.90;;;;;;5009406;28;20854;-50
2022/03/19 06:57:56;;;;;;;53.28;31.88;;;11.70;99.90;;;;;;5009190;28;20407;-52
2022/03/19 07:00:22;;;;;;;54.55;31.00;;;11.30;99.90;;;;;;5009247;28;20813;-51
2022/03/19 07:02:50;;;;;;;56.53;30.83;;;11.50;99.90;;;;;;5009230;28;20440;-50
2022/03/19 07:05:26;;;;;;;54.00;30.60;;;12.00;99.90;;;;;;5004794;28;20890;-50
2022/03/19 07:07:53;;;;;;;53.70;31.52;;;12.50;99.90;;;;;;5009295;28;20385;-50
2022/03/19 07:10:20;;;;;;;54.72;32.22;;;12.50;99.70;;;;;;5009296;28;20424;-51
2022/03/19 07:12:47;;;;;;;50.78;30.10;;;12.60;99.20;;;;;;5009889;28;20381;-50
2022/03/19 07:15:14;;;;;;;49.83;30.50;;;12.70;98.60;;;;;;4994722;28;20778;-51
2022/03/19 07:17:41;;;;;;;53.92;30.65;;;13.00;98.00;;;;;;5009120;28;20377;-50
2022/03/19 07:20:07;;;;;;;53.88;30.58;;;12.90;96.90;;;;;;5009106;28;20396;-50
2022/03/19 07:23:00;;;;;;;52.17;32.33;;;13.00;96.20;;;;;;5009118;28;20953;-50
2022/03/19 07:25:36;;;;;;;51.65;30.63;;;12.80;97.00;;;;;;4995062;28;20431;-51
2022/03/19 07:28:05;;;;;;;53.37;30.87;;;13.40;95.70;;;;;;5005169;28;20471;-53
2022/03/19 07:30:31;;;;;;;52.67;32.40;;;14.00;94.60;;;;;;5008668;28;20470;-53
2022/03/19 07:32:57;;;;;;;46.15;29.85;;;13.80;93.90;;;;;;5009868;28;20718;-53
2022/03/19 07:35:23;;;;;;;50.53;29.20;;;13.90;93.60;;;;;;5008614;28;20404;-51
2022/03/19 07:37:49;;;;;;;54.40;31.40;;;13.40;93.30;;;;;;5009695;28;20385;-52
2022/03/19 07:41:45;;;;;;;49.38;30.52;;;14.00;93.30;;;;;;5009471;28;20511;-52
2022/03/19 07:43:08;;;;;;;50.45;29.70;;;14.70;92.10;;;;;;5009126;28;20860;-53
2022/03/19 07:45:35;;;;;;;45.97;28.30;;;14.00;91.30;;;;;;5006385;28;20885;-53
2022/03/19 07:48:01;;;;;;;46.00;29.85;;;13.90;90.90;;;;;;5009011;28;20444;-53
2022/03/19 07:50:27;;;;;;;47.85;29.20;;;13.60;91.20;;;;;;5007743;28;20783;-51
2022/03/19 07:52:52;;;;;;;46.40;27.35;;;13.50;90.80;;;;;;5009730;28;20416;-51
2022/03/19 07:55:19;;;;;;;47.50;28.83;;;13.00;90.30;;;;;;5009359;28;20768;-52
2022/03/19 07:57:45;;;;;;;46.37;29.03;;;12.90;90.70;;;;;;5004576;28;20886;-53
2022/03/19 08:00:12;;;;;;;43.80;26.75;;;13.60;90.80;;;;;;5009110;28;20384;-53
2022/03/19 08:02:39;;;;;;;42.13;26.35;;;13.00;86.90;;;;;;5008324;28;20389;-50
2022/03/19 08:05:06;;;;;;;44.07;27.60;;;12.80;90.90;;;;;;5009272;28;20866;-53
2022/03/19 08:07:32;;;;;;;42.45;27.02;;;13.80;89.50;;;;;;5003437;28;20488;-53
2022/03/19 08:09:58;;;;;;;39.70;24.43;;;15.00;86.50;;;;;;5004088;28;20512;-53
2022/03/19 08:12:25;;;;;;;41.45;25.67;;;14.00;79.60;;;;;;4997178;28;20876;-52
2022/03/19 08:14:51;;;;;;;41.20;25.25;;;13.50;82.10;;;;;;5007860;28;20393;-52
2022/03/19 08:17:18;;;;;;;38.88;24.88;;;13.80;82.10;;;;;;5003278;28;20403;-53
2022/03/19 08:19:45;;;;;;;39.28;23.67;;;13.60;81.70;;;;;;4984129;28;20430;-50
2022/03/19 08:22:10;;;;;;;44.28;24.63;;;13.20;79.10;;;;;;4990857;28;20417;-52
2022/03/19 08:24:36;;;;;;;41.03;24.30;;;13.40;80.20;;;;;;5006878;28;20421;-53
2022/03/19 08:27:02;;;;;;;42.70;24.92;;;14.00;79.20;;;;;;5008159;28;20397;-53
2022/03/19 08:29:28;;;;;;;38.40;23.10;;;13.90;75.10;;;;;;5007632;28;20413;-52
2022/03/19 08:31:55;;;;;;;40.42;25.30;;;13.90;75.20;;;;;;5011429;28;20743;-52
2022/03/19 08:34:21;;;;;;;41.00;23.83;;;13.70;76.50;;;;;;5011806;28;20407;-53
2022/03/19 08:36:47;;;;;;;38.93;23.57;;;15.00;76.30;;;;;;5013219;28;21075;-53
2022/03/19 08:41:58;;;;;;;38.05;23.35;;;15.10;71.20;;;;;;5011585;28;20722;-53
2022/03/19 08:44:24;;;;;;;39.45;24.25;;;14.30;70.90;;;;;;5012866;28;20863;-53
2022/03/19 08:46:50;;;;;;;37.42;23.10;;;14.60;71.20;;;;;;5019162;28;20389;-53
2022/03/19 08:49:16;;;;;;;40.03;24.20;;;14.30;71.40;;;;;;5016067;28;20440;-53
2022/03/19 08:51:41;;;;;;;40.57;24.80;;;14.60;69.10;;;;;;5007034;28;20412;-53
2022/03/19 08:54:09;;;;;;;38.28;24.30;;;14.50;69.20;;;;;;5007155;28;20406;-53
2022/03/19 08:56:36;;;;;;;38.73;25.73;;;15.30;69.70;;;;;;5010024;28;20515;-53
2022/03/19 08:59:02;;;;;;;39.70;24.90;;;15.30;68.50;;;;;;4994146;28;20400;-53
2022/03/19 09:01:28;;;;;;;38.13;25.35;;;15.60;67.70;;;;;;5009364;28;20395;-53
2022/03/19 09:03:54;;;;;;;39.67;24.90;;;16.20;65.40;;;;;;4994277;28;20411;-53
2022/03/19 09:06:20;;;;;;;38.53;24.33;;;16.50;64.20;;;;;;5010383;28;20409;-53
2022/03/19 09:08:47;;;;;;;40.63;24.23;;;15.40;64.40;;;;;;5011843;28;20413;-53
2022/03/19 09:11:13;;;;;;;41.15;24.80;;;15.40;66.30;;;;;;5012579;28;20472;-53
2022/03/19 09:13:39;;;;;;;40.70;25.40;;;15.80;65.10;;;;;;5009004;28;20412;-53
2022/03/19 09:16:06;;;;;;;39.47;26.02;;;16.10;64.50;;;;;;5011664;28;20422;-53
2022/03/19 09:18:32;;;;;;;35.85;24.70;;;15.90;63.80;;;;;;5011630;28;20427;-54
2022/03/19 09:20:58;;;;;;;40.65;25.15;;;16.70;62.70;;;;;;5012106;28;20420;-53
2022/03/19 09:23:24;;;;;;;45.00;27.20;;;16.50;61.20;;;;;;5011482;28;20381;-53
2022/03/19 09:25:50;;;;;;;42.00;26.83;;;16.20;62.30;;;;;;5012144;28;20874;-53
2022/03/19 09:28:16;;;;;;;40.42;27.15;;;17.00;62.00;;;;;;5011807;28;20952;-53
2022/03/19 09:30:42;;;;;;;43.77;30.37;;;17.50;59.90;;;;;;5011111;28;20385;-51
2022/03/19 09:33:07;;;;;;;42.00;31.13;;;17.80;59.30;;;;;;5012092;28;20388;-51
2022/03/19 09:35:34;;;;;;;42.53;30.05;;;18.20;58.50;;;;;;5011249;28;20950;-51
2022/03/19 09:38:00;;;;;;;43.50;34.05;;;18.90;57.90;;;;;;5010009;28;20393;-51
2022/03/19 09:40:25;;;;;;;43.20;32.03;;;18.80;57.00;;;;;;5011100;28;20393;-51
2022/03/19 09:42:53;;;;;;;42.80;31.60;;;18.80;55.90;;;;;;5011258;28;20381;-54
2022/03/19 09:45:21;;;;;;;44.40;31.02;;;18.50;56.40;;;;;;5011811;28;20392;-53
2022/03/19 09:47:48;;;;;;;41.35;29.58;;;18.90;57.70;;;;;;5011570;28;20385;-53
2022/03/19 09:50:14;;;;;;;43.23;28.70;;;16.60;57.10;;;;;;5011957;28;20412;-53
2022/03/19 09:52:42;;;;;;;43.10;30.37;;;16.60;58.40;;;;;;5011073;28;20392;-53
2022/03/19 09:55:13;;;;;;;42.17;29.35;;;17.10;58.50;;;;;;5011904;28;20703;-54
2022/03/19 09:57:38;;;;;;;43.60;29.05;;;16.50;57.80;;;;;;5010802;28;20380;-53
2022/03/19 10:00:05;;;;;;;43.43;29.20;;;16.80;58.30;;;;;;4994172;28;20383;-53
2022/03/19 10:02:31;;;;;;;41.72;29.02;;;17.40;57.80;;;;;;5010093;28;20395;-53
2022/03/19 10:08:35;;;;;;;44.80;29.63;;;17.20;58.10;;;;;;5011430;28;20483;-53
2022/03/19 10:10:35;;;;;;;42.78;28.65;;;18.00;57.50;;;;;;5010754;28;20909;-52
2022/03/19 10:13:09;;;;;;;43.60;27.60;;;17.50;55.90;;;;;;5010994;28;20377;-53
2022/03/19 10:15:40;;;;;;;42.60;28.95;;;17.50;56.80;;;;;;5005107;28;20392;-53
2022/03/19 10:18:08;;;;;;;45.77;29.33;;;17.00;56.50;;;;;;5011735;28;20392;-53
2022/03/19 10:20:34;;;;;;;45.30;28.95;;;16.80;57.60;;;;;;5008930;28;20420;-53
2022/03/19 10:23:00;;;;;;;41.28;28.02;;;17.00;57.60;;;;;;5011302;28;20391;-53
2022/03/19 10:25:26;;;;;;;41.10;26.20;;;17.30;56.40;;;;;;5010534;28;20726;-54
2022/03/19 10:28:11;;;;;;;44.45;27.13;;;17.00;55.60;;;;;;5009539;28;20393;-56
2022/03/19 10:30:41;;;;;;;45.85;28.35;;;16.40;56.00;;;;;;5010225;28;20477;-53
2022/03/19 10:33:08;;;;;;;45.20;28.05;;;16.30;57.20;;;;;;5011280;28;20387;-53
2022/03/19 10:35:39;;;;;;;43.60;27.48;;;15.50;57.90;;;;;;5010176;28;20389;-53
2022/03/19 10:38:19;;;;;;;41.40;26.52;;;15.80;58.20;;;;;;5011250;28;20435;-53
2022/03/19 10:40:47;;;;;;;46.05;25.85;;;15.90;57.90;;;;;;5010038;28;20408;-53
2022/03/19 10:43:16;;;;;;;43.05;26.48;;;16.00;58.40;;;;;;5010859;28;20443;-53
2022/03/19 10:45:52;;;;;;;39.80;24.07;;;16.20;58.00;;;;;;5010231;28;20401;-53
2022/03/19 10:48:22;;;;;;;37.80;22.77;;;16.30;57.20;;;;;;5010655;28;20413;-53
2022/03/19 10:50:49;;;;;;;36.03;22.17;;;16.30;57.10;;;;;;5004825;28;20498;-53
2022/03/19 10:53:16;;;;;;;33.93;21.10;;;17.10;56.20;;;;;;5010567;28;20439;-54
2022/03/19 10:55:42;;;;;;;32.42;20.40;;;17.70;55.20;;;;;;5010017;28;20532;-53
2022/03/19 10:58:08;;;;;;;30.20;18.15;;;17.90;53.90;;;;;;5008741;28;20472;-53
2022/03/19 11:00:35;;;;;;;27.80;17.33;;;17.50;52.20;;;;;;5003668;28;20380;-54
2022/03/19 11:03:10;;;;;;;24.40;14.57;;;17.50;51.60;;;;;;5010244;28;20404;-54
2022/03/19 11:05:37;;;;;;;22.70;13.90;;;16.30;48.80;;;;;;5009839;28;20447;-53
2022/03/19 11:08:07;;;;;;;28.15;14.27;;;15.70;49.40;;;;;;5010213;28;21225;-53
2022/03/19 11:10:35;;;;;;;25.80;14.75;;;15.90;51.10;;;;;;5009570;28;20380;-53
2022/03/19 11:13:02;;;;;;;25.67;14.93;;;16.60;51.70;;;;;;5010433;28;20377;-53
2022/03/19 11:15:32;;;;;;;28.15;16.45;;;17.00;53.40;;;;;;5010124;28;20428;-53
2022/03/19 11:18:03;;;;;;;25.40;15.32;;;17.60;50.80;;;;;;5010353;28;20846;-53
2022/03/19 11:20:30;;;;;;;25.50;14.63;;;18.00;49.90;;;;;;5009410;28;20914;-53
2022/03/19 11:22:58;;;;;;;25.30;15.20;;;17.20;49.70;;;;;;5010341;28;20385;-53
2022/03/19 11:25:26;;;;;;;25.75;14.68;;;17.00;51.20;;;;;;5009860;28;20855;-53
2022/03/19 11:27:59;;;;;;;24.85;14.00;;;17.10;50.70;;;;;;5010145;28;20932;-54
2022/03/19 11:30:37;;;;;;;24.15;13.80;;;17.10;50.90;;;;;;4991788;28;20890;-54
2022/03/19 11:33:16;;;;;;;22.55;12.40;;;17.10;51.40;;;;;;5008963;28;20905;-53
2022/03/19 11:35:48;;;;;;;21.92;10.68;;;16.90;50.70;;;;;;5008009;28;20497;-53
2022/03/19 11:38:20;;;;;;;18.50;9.83;;;16.10;50.20;;;;;;5009681;28;20472;-53
2022/03/19 11:40:47;;;;;;;20.55;10.93;;;15.40;51.30;;;;;;5009188;28;20451;-53
2022/03/19 11:43:35;;;;;;;19.20;10.23;;;14.90;52.80;;;;;;5003720;28;20443;-53
2022/03/19 11:46:06;;;;;;;19.77;9.98;;;14.70;52.40;;;;;;5009953;28;20419;-53
2022/03/19 11:48:35;;;;;;;19.10;10.57;;;14.90;52.40;;;;;;5008866;28;20967;-53
2022/03/19 11:51:35;;;;;;;16.75;9.52;;;14.70;52.60;;;;;;5009900;28;20412;-53
2022/03/19 11:54:17;;;;;;;20.20;9.97;;;14.40;53.90;;;;;;5010030;28;20500;-53
2022/03/19 11:56:42;;;;;;;21.05;11.43;;;14.10;54.30;;;;;;5008713;28;20715;-53
2022/03/19 11:59:16;;;;;;;19.80;9.97;;;14.10;54.90;;;;;;5009442;28;20937;-53
2022/03/19 12:01:49;;;;;;;18.73;9.43;;;14.10;53.70;;;;;;5008749;28;20909;-51
2022/03/19 12:04:17;;;;;;;17.13;9.10;;;13.60;52.30;;;;;;5008867;28;20395;-50
2022/03/19 12:06:57;;;;;;;17.58;9.57;;;13.20;53.30;;;;;;5008465;28;20431;-50
2022/03/19 12:09:53;;;;;;;19.33;10.43;;;13.30;52.90;;;;;;5009214;28;20413;-51
2022/03/19 12:12:23;;;;;;;19.08;10.35;;;13.70;54.80;;;;;;5001953;28;20401;-50
2022/03/19 12:14:50;;;;;;;20.65;11.18;;;14.40;53.80;;;;;;5009182;28;20534;-51
2022/03/19 12:17:20;;;;;;;19.63;9.90;;;14.50;53.90;;;;;;5009324;28;20555;-53
2022/03/19 12:20:01;;;;;;;22.45;10.02;;;14.50;53.90;;;;;;5008684;28;21245;-53
2022/03/19 12:22:35;;;;;;;19.70;10.07;;;14.30;52.60;;;;;;5008871;28;20506;-53
2022/03/19 12:25:13;;;;;;;15.88;8.50;;;14.30;52.90;;;;;;5003064;28;20389;-52
2022/03/19 12:27:40;;;;;;;17.92;8.90;;;13.10;50.50;;;;;;5008474;28;20387;-53
2022/03/19 12:30:08;;;;;;;18.92;9.50;;;12.80;51.50;;;;;;5003817;28;20496;-50
2022/03/19 12:32:54;;;;;;;16.90;7.90;;;13.10;52.70;;;;;;5008347;28;20385;-50
2022/03/19 12:35:24;;;;;;;14.02;7.28;;;13.60;52.50;;;;;;5009392;28;20401;-51
2022/03/19 12:37:55;;;;;;;15.10;7.82;;;14.10;51.00;;;;;;5009251;28;20381;-50
2022/03/19 12:40:26;;;;;;;14.63;7.43;;;13.90;49.10;;;;;;5009167;28;20490;-50
2022/03/19 12:42:55;;;;;;;15.20;8.05;;;13.70;50.30;;;;;;5009014;28;20392;-51
2022/03/19 12:45:41;;;;;;;17.35;9.10;;;13.70;51.60;;;;;;5004358;28;20413;-51
2022/03/19 12:48:12;;;;;;;12.37;6.63;;;14.40;52.90;;;;;;5003245;28;20526;-53
2022/03/19 12:50:38;;;;;;;14.85;6.53;;;14.40;49.30;;;;;;5007857;28;20404;-51
2022/03/19 12:53:04;;;;;;;14.00;7.27;;;14.00;50.30;;;;;;5009173;28;20423;-51